KBNW/BNW METAR and TAF weather

Enter ICAO airport designator
Station Type Date Time Source
KBNW METAR 2021/01/16 02:35 UTC NOAA

KBNW 160235Z AUTO 34017KT 6SM BR OVC005 01/01 A2972 RMK AO2


Station Type Date Time Source
KBNW Decoded METAR 2021/01/16 02:35 UTC NOAA

Boone Municipal, IA, United States (KBNW) 42-03N 093-51W
Jan 15, 2021 - 09:35 PM EST / 2021.01.16 0235 UTC
Wind: from the NNW (340 degrees) at 20 MPH (17 KT):0
Visibility: 6 mile(s):0
Sky conditions: overcast
Weather: mist
Temperature: 33 F (1 C)
Windchill: 21 F (-6 C):1
Dew Point: 33 F (1 C)
Relative Humidity: 100%
Pressure (altimeter): 29.72 in. Hg (1006 hPa)
ob: KBNW 160235Z AUTO 34017KT 6SM BR OVC005 01/01 A2972 RMK AO2
cycle: 2

Station Type Date Time Source
KBNW TAF UTC NOAA

Error!

Example: see airport list